createdAt,value
2018-05-29T00:01:32.768Z,76.13
2018-05-29T00:04:00.324Z,75.81
2018-05-29T00:06:27.924Z,75.96
2018-05-29T00:08:55.484Z,76.34
2018-05-29T00:11:23.032Z,76.19
2018-05-29T00:13:50.604Z,76.61
2018-05-29T00:16:18.153Z,76.77
2018-05-29T00:18:45.717Z,76.98
2018-05-29T00:21:13.285Z,76.58
2018-05-29T00:23:40.873Z,76.10
2018-05-29T00:26:08.419Z,76.44
2018-05-29T00:28:35.969Z,76.64
2018-05-29T00:31:03.551Z,76.78
2018-05-29T00:33:31.102Z,77.34
2018-05-29T00:35:58.692Z,77.23
2018-05-29T00:38:26.238Z,77.23
2018-05-29T00:40:53.784Z,77.70
2018-05-29T00:43:21.345Z,76.92
2018-05-29T00:45:48.908Z,76.91
2018-05-29T00:48:16.469Z,76.38
2018-05-29T00:50:44.020Z,76.68
2018-05-29T00:53:11.669Z,76.76
2018-05-29T00:55:39.305Z,75.87
2018-05-29T00:58:06.872Z,76.23
2018-05-29T01:00:34.434Z,76.65
2018-05-29T01:03:01.996Z,76.20
2018-05-29T01:05:29.611Z,76.27
2018-05-29T01:07:57.179Z,75.46
2018-05-29T01:10:24.724Z,75.96
2018-05-29T01:12:52.288Z,76.47
2018-05-29T01:15:19.833Z,75.94
2018-05-29T01:17:47.449Z,75.84
2018-05-29T01:20:15.012Z,75.62
2018-05-29T01:22:42.563Z,75.50
2018-05-29T01:25:10.120Z,75.40
2018-05-29T01:27:37.668Z,76.02
2018-05-29T01:30:05.236Z,76.62
2018-05-29T01:32:32.800Z,76.66
2018-05-29T01:35:00.400Z,76.47
2018-05-29T01:37:27.967Z,76.34
2018-05-29T01:39:55.524Z,76.01
2018-05-29T01:42:23.080Z,76.41
2018-05-29T01:44:50.624Z,76.68
2018-05-29T01:47:18.184Z,76.21
2018-05-29T01:49:45.736Z,75.93
2018-05-29T01:52:13.344Z,75.83
2018-05-29T01:54:40.896Z,76.47
2018-05-29T01:57:08.449Z,77.26
2018-05-29T01:59:36.029Z,77.33
2018-05-29T02:02:03.616Z,77.26
2018-05-29T02:04:31.191Z,77.12
2018-05-29T02:06:58.764Z,77.45
2018-05-29T02:09:26.370Z,77.75
2018-05-29T02:11:53.920Z,77.97
2018-05-29T02:14:21.472Z,77.84
2018-05-29T02:16:49.037Z,77.29
2018-05-29T02:19:16.584Z,76.82
2018-05-29T02:21:44.144Z,77.06
2018-05-29T02:24:11.760Z,76.43
2018-05-29T02:26:39.366Z,76.86
2018-05-29T02:29:06.937Z,77.68
2018-05-29T02:31:34.485Z,77.84
2018-05-29T02:34:02.048Z,77.45
2018-05-29T02:36:29.608Z,77.89
2018-05-29T02:38:57.169Z,78.52
2018-05-29T02:41:24.719Z,78.77
2018-05-29T02:43:52.328Z,79.11
2018-05-29T02:46:19.876Z,79.29
2018-05-29T02:48:47.428Z,79.29
2018-05-29T02:51:14.984Z,78.90
2018-05-29T02:53:42.544Z,79.03
2018-05-29T02:56:10.116Z,78.88
2018-05-29T02:58:37.672Z,78.32
2018-05-29T03:01:05.293Z,78.39
2018-05-29T03:03:32.846Z,78.64
2018-05-29T03:06:00.418Z,78.48
2018-05-29T03:08:27.977Z,78.11
2018-05-29T03:10:55.530Z,77.66
2018-05-29T03:13:23.101Z,77.50
2018-05-29T03:15:50.688Z,77.67
2018-05-29T03:18:18.292Z,78.37
2018-05-29T03:20:45.844Z,77.65
2018-05-29T03:23:13.401Z,77.44
2018-05-29T03:25:40.969Z,76.98
2018-05-29T03:28:08.563Z,76.56
2018-05-29T03:30:36.122Z,76.59
2018-05-29T03:33:03.703Z,76.66
2018-05-29T03:35:31.309Z,76.33
2018-05-29T03:37:58.864Z,76.23
2018-05-29T03:40:26.452Z,76.34
2018-05-29T03:42:54.012Z,75.25
2018-05-29T03:45:21.573Z,74.88
2018-05-29T03:47:49.185Z,74.58
2018-05-29T03:50:16.762Z,74.11
2018-05-29T03:52:44.368Z,73.93
2018-05-29T03:55:11.925Z,73.50
2018-05-29T03:57:39.480Z,71.78
2018-05-29T04:00:07.084Z,72.37
2018-05-29T04:02:35.616Z,72.55
2018-05-29T04:05:03.175Z,71.54
2018-05-29T04:07:30.747Z,71.79
2018-05-29T04:09:58.320Z,70.93
2018-05-29T04:12:25.925Z,71.83
2018-05-29T04:14:53.483Z,71.68
2018-05-29T04:17:21.047Z,71.61
2018-05-29T04:19:48.608Z,71.96
2018-05-29T04:22:16.169Z,71.85
2018-05-29T04:24:43.732Z,70.57
2018-05-29T04:27:11.284Z,70.15
2018-05-29T04:29:38.892Z,70.81
2018-05-29T04:32:06.444Z,69.72
2018-05-29T04:34:34.000Z,69.81
2018-05-29T04:37:01.581Z,69.63
2018-05-29T04:39:29.133Z,69.36
2018-05-29T04:41:56.688Z,69.04
2018-05-29T04:44:24.242Z,69.72
2018-05-29T04:46:51.848Z,69.36
2018-05-29T04:49:19.404Z,68.12
2018-05-29T04:51:46.952Z,67.32
2018-05-29T04:54:14.521Z,66.96
2018-05-29T04:56:42.089Z,67.23
2018-05-29T04:59:09.653Z,66.29
2018-05-29T05:01:37.215Z,65.94
2018-05-29T05:04:04.845Z,64.92
2018-05-29T05:06:32.398Z,64.80
2018-05-29T05:08:59.963Z,64.31
2018-05-29T05:11:27.591Z,63.54
2018-05-29T05:13:55.168Z,63.13
2018-05-29T05:16:22.731Z,62.52
2018-05-29T05:18:50.280Z,62.74
2018-05-29T05:21:17.892Z,60.92
2018-05-29T05:23:45.440Z,61.58
2018-05-29T05:26:13.001Z,60.87
2018-05-29T05:28:40.563Z,59.92
2018-05-29T05:31:08.118Z,58.82
2018-05-29T05:33:35.676Z,57.98
2018-05-29T05:36:03.308Z,57.94
2018-05-29T05:38:30.917Z,57.33
2018-05-29T05:40:58.472Z,57.97
2018-05-29T05:43:26.030Z,56.79
2018-05-29T05:45:53.603Z,56.60
2018-05-29T05:48:21.175Z,56.87
2018-05-29T05:50:48.736Z,56.07
2018-05-29T05:53:16.290Z,55.86
2018-05-29T05:55:44.167Z,55.43
2018-05-29T05:58:11.786Z,55.84
2018-05-29T06:00:39.305Z,54.80
2018-05-29T06:03:06.950Z,54.83
2018-05-29T06:05:34.512Z,55.47
2018-05-29T06:08:02.097Z,54.75
2018-05-29T06:10:29.648Z,56.36
2018-05-29T06:12:57.261Z,54.75
2018-05-29T06:15:24.812Z,53.78
2018-05-29T06:17:52.373Z,52.55
2018-05-29T06:20:19.952Z,51.23
2018-05-29T06:22:47.520Z,51.88
2018-05-29T06:25:15.091Z,51.37
2018-05-29T06:27:42.648Z,52.44
2018-05-29T06:30:10.256Z,51.99
2018-05-29T06:32:37.804Z,52.35
2018-05-29T06:35:05.376Z,52.13
2018-05-29T06:37:32.937Z,52.98
2018-05-29T06:40:00.501Z,53.49
2018-05-29T06:42:28.067Z,53.02
2018-05-29T06:44:55.644Z,53.15
2018-05-29T06:47:23.248Z,53.64
2018-05-29T06:49:50.800Z,53.32
2018-05-29T06:52:18.352Z,53.60
2018-05-29T06:54:45.912Z,52.98
2018-05-29T06:57:13.465Z,54.53
2018-05-29T06:59:41.028Z,53.95
2018-05-29T07:02:08.592Z,53.53
2018-05-29T07:04:36.201Z,53.74
2018-05-29T07:07:03.843Z,54.71
2018-05-29T07:09:31.404Z,55.17
2018-05-29T07:11:59.009Z,54.23
2018-05-29T07:14:26.564Z,55.11
2018-05-29T07:16:54.133Z,53.27
2018-05-29T07:19:21.694Z,54.21
2018-05-29T07:21:49.307Z,52.38
2018-05-29T07:24:16.861Z,51.49
2018-05-29T07:26:44.417Z,49.39
2018-05-29T07:29:11.976Z,49.00
2018-05-29T07:31:39.536Z,49.54
2018-05-29T07:34:07.089Z,50.46
2018-05-29T07:36:34.635Z,49.09
2018-05-29T07:39:02.247Z,48.61
2018-05-29T07:41:29.825Z,47.66
2018-05-29T07:43:57.408Z,46.82
2018-05-29T07:46:25.028Z,45.44
2018-05-29T07:48:52.574Z,44.59
2018-05-29T07:51:20.146Z,44.85
2018-05-29T07:53:47.707Z,43.68
2018-05-29T07:56:15.317Z,42.81
2018-05-29T07:58:42.906Z,42.04
2018-05-29T08:01:10.472Z,42.79
2018-05-29T08:03:38.076Z,40.74
2018-05-29T08:06:05.653Z,41.63
2018-05-29T08:08:33.240Z,42.93
2018-05-29T08:11:00.797Z,39.66
2018-05-29T08:13:28.354Z,39.50
2018-05-29T08:15:55.928Z,38.33
2018-05-29T08:18:23.488Z,35.62
2018-05-29T08:20:51.044Z,36.85
2018-05-29T08:23:18.605Z,39.14
2018-05-29T08:25:46.168Z,38.68
2018-05-29T08:28:13.761Z,34.65
2018-05-29T08:30:41.308Z,37.78
2018-05-29T08:33:08.876Z,37.73
2018-05-29T08:35:36.420Z,38.77
2018-05-29T08:38:04.037Z,40.55
2018-05-29T08:40:31.596Z,38.65
2018-05-29T08:42:59.147Z,38.24
2018-05-29T08:45:26.701Z,36.86
2018-05-29T08:47:54.256Z,38.69
2018-05-29T08:50:21.824Z,37.15
2018-05-29T08:52:49.381Z,39.19
2018-05-29T08:55:16.992Z,37.77
2018-05-29T08:57:44.555Z,37.14
2018-05-29T09:00:12.112Z,34.44
2018-05-29T09:02:39.671Z,34.96
2018-05-29T09:05:07.230Z,37.32
2018-05-29T09:07:34.793Z,36.95
2018-05-29T09:10:02.341Z,37.14
2018-05-29T09:12:29.972Z,35.94
2018-05-29T09:14:57.517Z,35.50
2018-05-29T09:17:25.069Z,36.84
2018-05-29T09:19:52.698Z,36.49
2018-05-29T09:22:20.229Z,35.50
2018-05-29T09:24:47.846Z,34.67
2018-05-29T09:27:15.410Z,34.59
2018-05-29T09:29:43.089Z,34.79
2018-05-29T09:32:10.612Z,35.54
2018-05-29T09:34:38.308Z,34.92
2018-05-29T09:37:06.200Z,33.40
2018-05-29T09:39:33.825Z,34.33
2018-05-29T09:42:01.476Z,33.93
2018-05-29T09:44:29.420Z,35.15
2018-05-29T09:46:57.046Z,34.72
2018-05-29T09:49:24.597Z,32.52
2018-05-29T09:51:52.172Z,33.93
2018-05-29T09:54:19.732Z,33.82
2018-05-29T09:56:47.282Z,33.66
2018-05-29T09:59:14.852Z,32.57
2018-05-29T10:01:42.420Z,34.03
2018-05-29T10:04:10.031Z,33.55
2018-05-29T10:06:38.036Z,35.00
2018-05-29T10:09:05.653Z,33.97
2018-05-29T10:11:33.219Z,33.66
2018-05-29T10:14:00.808Z,34.19
2018-05-29T10:16:28.364Z,34.13
2018-05-29T10:18:55.924Z,32.25
2018-05-29T10:21:23.529Z,32.69
2018-05-29T10:23:51.077Z,34.03
2018-05-29T10:26:19.592Z,32.61
2018-05-29T10:28:47.167Z,32.64
2018-05-29T10:31:14.719Z,33.40
2018-05-29T10:33:42.394Z,33.32
2018-05-29T10:36:09.991Z,33.97
2018-05-29T10:38:37.607Z,34.09
2018-05-29T10:41:05.169Z,34.53
2018-05-29T10:43:32.756Z,34.94
2018-05-29T10:46:00.314Z,33.43
2018-05-29T10:48:27.914Z,33.58
2018-05-29T10:50:55.484Z,33.40
2018-05-29T10:53:23.036Z,32.88
2018-05-29T10:55:50.648Z,33.87
2018-05-29T10:58:18.200Z,35.75
2018-05-29T11:00:45.756Z,34.81
2018-05-29T11:03:13.312Z,32.53
2018-05-29T11:05:40.872Z,34.97
2018-05-29T11:08:08.508Z,34.63
2018-05-29T11:10:36.065Z,34.35
2018-05-29T11:13:03.662Z,35.03
2018-05-29T11:15:31.251Z,34.13
2018-05-29T11:17:58.816Z,33.30
2018-05-29T11:20:26.433Z,32.81
2018-05-29T11:22:54.031Z,34.71
2018-05-29T11:25:21.596Z,34.42
2018-05-29T11:27:49.160Z,32.08
2018-05-29T11:30:16.732Z,32.09
2018-05-29T11:32:44.315Z,32.02
2018-05-29T11:35:11.860Z,31.06
2018-05-29T11:37:39.464Z,32.34
2018-05-29T11:40:07.045Z,32.17
2018-05-29T11:42:34.596Z,33.19
2018-05-29T11:45:02.161Z,33.88
2018-05-29T11:47:29.753Z,34.50
2018-05-29T11:49:57.394Z,34.67
2018-05-29T11:52:25.153Z,34.84
2018-05-29T11:54:53.121Z,36.14
2018-05-29T11:57:20.700Z,35.09
2018-05-29T11:59:48.376Z,35.36
2018-05-29T12:02:15.943Z,34.19
2018-05-29T12:04:43.523Z,35.74
2018-05-29T12:07:11.094Z,34.70
2018-05-29T12:09:38.642Z,35.00
2018-05-29T12:12:17.933Z,33.73
2018-05-29T12:14:45.477Z,34.78
2018-05-29T12:17:13.024Z,33.17
2018-05-29T12:19:40.589Z,32.90
2018-05-29T12:22:08.138Z,32.33
2018-05-29T12:24:35.696Z,31.55
2018-05-29T12:27:03.252Z,31.02
2018-05-29T12:29:30.865Z,31.29
2018-05-29T12:31:58.603Z,30.36
2018-05-29T12:34:26.216Z,31.24
2018-05-29T12:36:53.866Z,31.05
2018-05-29T12:39:21.424Z,31.47
2018-05-29T12:41:48.997Z,30.61
2018-05-29T12:44:16.556Z,32.01
2018-05-29T12:46:44.161Z,32.23
2018-05-29T12:49:11.728Z,30.78
2018-05-29T12:51:39.277Z,31.01
2018-05-29T12:54:06.882Z,30.08
2018-05-29T12:56:34.434Z,29.58
2018-05-29T12:59:02.068Z,28.13
2018-05-29T13:01:29.620Z,28.48
2018-05-29T13:03:57.230Z,28.49
2018-05-29T13:06:24.789Z,27.48
2018-05-29T13:08:52.347Z,27.93
2018-05-29T13:11:19.951Z,28.20
2018-05-29T13:13:47.488Z,27.78
2018-05-29T13:16:15.190Z,28.31
2018-05-29T13:18:42.744Z,28.21
2018-05-29T13:21:10.406Z,27.13
2018-05-29T13:23:37.974Z,26.55
2018-05-29T13:26:05.553Z,25.77
2018-05-29T13:28:33.156Z,26.69
2018-05-29T13:31:00.732Z,26.51
2018-05-29T13:33:28.298Z,25.99
2018-05-29T13:35:55.854Z,26.13
2018-05-29T13:38:23.457Z,27.37
2018-05-29T13:40:51.017Z,26.31
2018-05-29T13:43:18.568Z,27.12
2018-05-29T13:45:46.153Z,27.80
2018-05-29T13:48:13.712Z,27.64
2018-05-29T13:50:41.285Z,27.95
2018-05-29T13:53:08.844Z,28.31
2018-05-29T13:55:36.460Z,27.19
2018-05-29T13:58:04.017Z,27.30
2018-05-29T14:00:31.574Z,26.76
2018-05-29T14:02:59.137Z,26.36
2018-05-29T14:05:26.704Z,26.74
2018-05-29T14:07:54.298Z,27.76
2018-05-29T14:10:21.893Z,28.62
2018-05-29T14:12:49.470Z,29.91
2018-05-29T14:15:17.041Z,29.58
2018-05-29T14:17:44.642Z,30.22
2018-05-29T14:20:12.385Z,30.26
2018-05-29T14:22:39.952Z,30.67
2018-05-29T14:25:07.588Z,30.28
2018-05-29T14:27:35.184Z,29.24
2018-05-29T14:30:02.800Z,28.55
2018-05-29T14:32:30.366Z,29.07
2018-05-29T14:34:58.086Z,28.22
2018-05-29T14:37:25.665Z,27.62
2018-05-29T14:39:53.232Z,28.22
2018-05-29T14:42:20.804Z,28.33
2018-05-29T14:44:48.465Z,27.59
2018-05-29T14:47:16.017Z,27.43
2018-05-29T14:49:43.577Z,27.46
2018-05-29T14:52:11.133Z,25.97
2018-05-29T14:54:38.677Z,26.31
2018-05-29T14:57:06.245Z,26.66
2018-05-29T14:59:34.451Z,28.37
2018-05-29T15:02:02.041Z,26.87
2018-05-29T15:04:29.593Z,27.04
2018-05-29T15:06:57.209Z,27.47
2018-05-29T15:09:24.788Z,28.49
2018-05-29T15:11:52.341Z,27.87
2018-05-29T15:14:19.893Z,28.38
2018-05-29T15:16:47.487Z,28.59
2018-05-29T15:19:15.056Z,29.82
2018-05-29T15:21:42.612Z,29.29
2018-05-29T15:24:10.245Z,28.06
2018-05-29T15:26:37.801Z,28.46
2018-05-29T15:29:05.400Z,29.10
2018-05-29T15:31:33.021Z,28.79
2018-05-29T15:34:00.591Z,29.08
2018-05-29T15:36:28.218Z,28.40
2018-05-29T15:38:55.823Z,29.61
2018-05-29T15:41:23.432Z,30.10
2018-05-29T15:43:51.012Z,30.54
2018-05-29T15:46:18.588Z,30.62
2018-05-29T15:48:46.282Z,30.63
2018-05-29T15:51:13.855Z,30.68
2018-05-29T15:53:41.413Z,30.82
2018-05-29T15:56:09.053Z,30.23
2018-05-29T15:58:36.689Z,30.98
2018-05-29T16:01:04.290Z,31.07
2018-05-29T16:03:31.959Z,30.05
2018-05-29T16:05:59.573Z,30.23
2018-05-29T16:08:27.146Z,30.92
2018-05-29T16:10:54.721Z,31.37
2018-05-29T16:13:22.290Z,31.71
2018-05-29T16:15:49.994Z,31.81
2018-05-29T16:18:17.573Z,32.15
2018-05-29T16:20:45.149Z,32.13
2018-05-29T16:23:12.717Z,32.79
2018-05-29T16:25:40.265Z,32.25
2018-05-29T16:28:07.908Z,32.20
2018-05-29T16:30:35.464Z,31.17
2018-05-29T16:33:03.091Z,32.09
2018-05-29T16:35:31.576Z,32.36
2018-05-29T16:37:59.132Z,32.53
2018-05-29T16:40:26.745Z,32.78
2018-05-29T16:42:54.285Z,34.14
2018-05-29T16:45:21.840Z,33.57
2018-05-29T16:47:49.389Z,33.44
2018-05-29T16:50:17.048Z,33.69
2018-05-29T16:52:44.629Z,33.45
2018-05-29T16:55:12.193Z,35.05
2018-05-29T16:57:39.782Z,34.93
2018-05-29T17:00:07.430Z,35.65
2018-05-29T17:02:35.050Z,34.88
2018-05-29T17:05:02.634Z,35.34
2018-05-29T17:07:30.488Z,35.79
2018-05-29T17:09:58.312Z,35.91
2018-05-29T17:12:26.040Z,35.80
2018-05-29T17:14:53.844Z,36.69
2018-05-29T17:17:21.566Z,36.74
2018-05-29T17:19:49.387Z,36.85
2018-05-29T17:22:17.405Z,37.04
2018-05-29T17:24:45.622Z,37.51
2018-05-29T17:27:13.540Z,37.78
2018-05-29T17:29:41.552Z,37.78
2018-05-29T17:32:09.479Z,38.60
2018-05-29T17:34:37.194Z,38.84
2018-05-29T17:37:04.912Z,39.31
2018-05-29T17:39:32.565Z,39.63
2018-05-29T17:42:00.466Z,40.17
2018-05-29T17:44:28.371Z,40.20
2018-05-29T17:46:56.048Z,40.23
2018-05-29T17:49:23.697Z,40.51
2018-05-29T17:51:51.349Z,40.51
2018-05-29T17:54:18.988Z,40.99
2018-05-29T17:56:46.567Z,40.86
2018-05-29T17:59:14.503Z,41.45
2018-05-29T18:01:42.302Z,41.45
2018-05-29T18:04:09.928Z,42.03
2018-05-29T18:06:37.537Z,41.74
2018-05-29T18:09:06.190Z,42.23
2018-05-29T18:11:33.990Z,42.52
2018-05-29T18:14:01.776Z,42.67
2018-05-29T18:16:29.520Z,42.82
2018-05-29T18:18:57.196Z,42.62
2018-05-29T18:21:24.951Z,42.93
2018-05-29T18:23:52.696Z,43.10
2018-05-29T18:26:20.320Z,43.58
2018-05-29T18:28:48.390Z,43.25
2018-05-29T18:31:16.039Z,43.34
2018-05-29T18:33:43.773Z,43.19
2018-05-29T18:36:11.501Z,42.95
2018-05-29T18:38:39.196Z,45.54
2018-05-29T18:41:06.973Z,43.34
2018-05-29T18:43:34.789Z,44.28
2018-05-29T18:46:02.507Z,44.87
2018-05-29T18:48:30.187Z,44.44
2018-05-29T18:50:57.833Z,44.78
2018-05-29T18:53:25.516Z,45.47
2018-05-29T18:55:53.268Z,45.11
2018-05-29T18:58:21.122Z,45.85
2018-05-29T19:00:48.819Z,45.36
2018-05-29T19:03:16.862Z,46.00
2018-05-29T19:05:45.086Z,45.57
2018-05-29T19:08:12.938Z,45.62
2018-05-29T19:10:40.608Z,45.70
2018-05-29T19:13:08.320Z,45.97
2018-05-29T19:15:36.132Z,45.33
2018-05-29T19:18:03.881Z,45.88
2018-05-29T19:20:31.692Z,44.88
2018-05-29T19:22:59.595Z,44.48
2018-05-29T19:25:27.369Z,44.18
2018-05-29T19:27:55.150Z,44.56
2018-05-29T19:30:22.807Z,44.81
2018-05-29T19:32:50.616Z,44.57
2018-05-29T19:35:18.381Z,46.11
2018-05-29T19:37:46.071Z,44.92
2018-05-29T19:40:13.684Z,44.41
2018-05-29T19:42:41.316Z,43.99
2018-05-29T19:45:09.086Z,45.39
2018-05-29T19:47:36.779Z,44.18
2018-05-29T19:50:04.483Z,44.12
2018-05-29T19:52:32.124Z,43.77
2018-05-29T19:54:59.706Z,42.98
2018-05-29T19:57:27.288Z,43.31
2018-05-29T19:59:54.893Z,44.47
2018-05-29T20:02:22.578Z,43.61
2018-05-29T20:04:50.157Z,42.92
2018-05-29T20:07:17.764Z,42.13
2018-05-29T20:09:45.360Z,43.24
2018-05-29T20:12:12.936Z,42.49
2018-05-29T20:14:41.275Z,45.54
2018-05-29T20:17:08.840Z,47.91
2018-05-29T20:19:36.408Z,49.98
2018-05-29T20:22:04.043Z,50.84
2018-05-29T20:24:31.703Z,51.57
2018-05-29T20:26:59.258Z,51.71
2018-05-29T20:29:26.813Z,51.39
2018-05-29T20:31:54.413Z,51.05
2018-05-29T20:34:21.970Z,49.14
2018-05-29T20:36:49.555Z,47.46
2018-05-29T20:39:17.113Z,46.72
2018-05-29T20:41:44.725Z,46.48
2018-05-29T20:44:12.273Z,46.33
2018-05-29T20:46:39.868Z,47.12
2018-05-29T20:49:07.484Z,51.34
2018-05-29T20:51:35.040Z,54.59
2018-05-29T20:54:02.625Z,56.04
2018-05-29T20:56:30.232Z,56.50
2018-05-29T20:58:57.848Z,56.71
2018-05-29T21:01:25.403Z,54.99
2018-05-29T21:03:52.958Z,55.54
2018-05-29T21:06:20.528Z,55.82
2018-05-29T21:08:48.085Z,55.20
2018-05-29T21:11:15.656Z,55.74
2018-05-29T21:13:43.201Z,56.62
2018-05-29T21:16:10.802Z,56.47
2018-05-29T21:18:38.360Z,56.44
2018-05-29T21:21:05.908Z,56.47
2018-05-29T21:23:33.464Z,56.41
2018-05-29T21:26:01.017Z,56.47
2018-05-29T21:28:28.572Z,56.67
2018-05-29T21:30:56.120Z,57.78
2018-05-29T21:33:23.725Z,57.09
2018-05-29T21:35:51.281Z,57.69
2018-05-29T21:38:18.833Z,57.29
2018-05-29T21:40:46.392Z,57.94
2018-05-29T21:43:13.938Z,57.84
2018-05-29T21:45:41.505Z,58.05
2018-05-29T21:48:09.084Z,58.20
2018-05-29T21:50:36.689Z,58.69
2018-05-29T21:53:04.250Z,59.02
2018-05-29T21:55:31.805Z,59.44
2018-05-29T21:57:59.364Z,59.54
2018-05-29T22:00:26.925Z,58.98
2018-05-29T22:02:54.478Z,59.36
2018-05-29T22:05:22.032Z,60.23
2018-05-29T22:07:49.637Z,61.35
2018-05-29T22:10:17.189Z,62.44
2018-05-29T22:12:44.740Z,62.54
2018-05-29T22:15:12.296Z,61.69
2018-05-29T22:17:39.878Z,62.45
2018-05-29T22:20:07.436Z,62.49
2018-05-29T22:22:34.984Z,62.52
2018-05-29T22:25:02.584Z,62.54
2018-05-29T22:27:30.136Z,63.17
2018-05-29T22:29:57.687Z,63.22
2018-05-29T22:32:25.243Z,63.05
2018-05-29T22:34:52.784Z,63.35
2018-05-29T22:37:20.340Z,63.64
2018-05-29T22:39:47.892Z,63.63
2018-05-29T22:42:15.500Z,64.32
2018-05-29T22:44:43.052Z,64.29
2018-05-29T22:47:10.617Z,64.06
2018-05-29T22:49:38.177Z,64.45
2018-05-29T22:52:05.736Z,65.36
2018-05-29T22:54:33.296Z,65.58
2018-05-29T22:57:00.856Z,65.58
2018-05-29T22:59:28.456Z,65.43
2018-05-29T23:01:56.008Z,66.02
2018-05-29T23:04:23.632Z,66.34
2018-05-29T23:06:51.192Z,67.02
2018-05-29T23:09:18.741Z,67.02
2018-05-29T23:11:46.300Z,67.42
2018-05-29T23:14:13.849Z,67.01
2018-05-29T23:16:41.460Z,66.25
2018-05-29T23:19:09.004Z,67.25
2018-05-29T23:21:36.548Z,67.88
2018-05-29T23:24:04.193Z,67.44
2018-05-29T23:26:31.754Z,68.15
2018-05-29T23:28:59.352Z,67.72
2018-05-29T23:31:26.904Z,68.98
2018-05-29T23:33:54.456Z,69.05
2018-05-29T23:36:22.020Z,68.96
2018-05-29T23:38:49.577Z,68.57
2018-05-29T23:41:17.176Z,68.39
2018-05-29T23:43:45.241Z,68.62
2018-05-29T23:46:13.168Z,69.70
2018-05-29T23:48:40.732Z,70.09
2018-05-29T23:51:08.288Z,70.63
2018-05-29T23:53:35.852Z,70.55
2018-05-29T23:56:03.409Z,70.75
2018-05-29T23:58:31.004Z,71.08
